sensor_id;sensor_type;location;lat;lon;timestamp;P1;durP1;ratioP1;P2;durP2;ratioP2
25653;SDS011;13511;48.622;9.230;2023-05-10T00:00:14;5.00;;;3.85;;
25653;SDS011;13511;48.622;9.230;2023-05-10T00:02:40;5.60;;;4.28;;
25653;SDS011;13511;48.622;9.230;2023-05-10T00:05:06;4.72;;;4.20;;
25653;SDS011;13511;48.622;9.230;2023-05-10T00:07:33;4.20;;;4.00;;
25653;SDS011;13511;48.622;9.230;2023-05-10T00:09:59;3.90;;;3.60;;
25653;SDS011;13511;48.622;9.230;2023-05-10T00:12:25;3.50;;;3.30;;
25653;SDS011;13511;48.622;9.230;2023-05-10T00:14:51;4.20;;;3.70;;
25653;SDS011;13511;48.622;9.230;2023-05-10T00:17:17;3.83;;;3.53;;
25653;SDS011;13511;48.622;9.230;2023-05-10T00:19:43;4.18;;;3.67;;
25653;SDS011;13511;48.622;9.230;2023-05-10T00:22:09;3.97;;;3.35;;
25653;SDS011;13511;48.622;9.230;2023-05-10T00:24:35;5.53;;;3.72;;
25653;SDS011;13511;48.622;9.230;2023-05-10T00:27:01;3.50;;;3.40;;
25653;SDS011;13511;48.622;9.230;2023-05-10T00:29:28;4.68;;;3.35;;
25653;SDS011;13511;48.622;9.230;2023-05-10T00:31:54;3.67;;;3.40;;
25653;SDS011;13511;48.622;9.230;2023-05-10T00:34:21;3.10;;;3.00;;
25653;SDS011;13511;48.622;9.230;2023-05-10T00:36:47;3.13;;;2.92;;
25653;SDS011;13511;48.622;9.230;2023-05-10T00:39:13;3.13;;;2.72;;
25653;SDS011;13511;48.622;9.230;2023-05-10T00:41:39;2.85;;;2.67;;
25653;SDS011;13511;48.622;9.230;2023-05-10T00:44:05;3.17;;;2.97;;
25653;SDS011;13511;48.622;9.230;2023-05-10T00:46:31;2.90;;;2.78;;
25653;SDS011;13511;48.622;9.230;2023-05-10T00:48:57;5.72;;;2.97;;
25653;SDS011;13511;48.622;9.230;2023-05-10T00:51:23;3.10;;;2.88;;
25653;SDS011;13511;48.622;9.230;2023-05-10T00:53:50;2.60;;;2.50;;
25653;SDS011;13511;48.622;9.230;2023-05-10T00:56:16;3.20;;;3.00;;
25653;SDS011;13511;48.622;9.230;2023-05-10T00:58:43;2.88;;;2.45;;
25653;SDS011;13511;48.622;9.230;2023-05-10T01:01:09;2.80;;;2.70;;
25653;SDS011;13511;48.622;9.230;2023-05-10T01:03:35;3.03;;;2.88;;
25653;SDS011;13511;48.622;9.230;2023-05-10T01:06:01;3.20;;;2.35;;
25653;SDS011;13511;48.622;9.230;2023-05-10T01:08:28;2.47;;;2.30;;
25653;SDS011;13511;48.622;9.230;2023-05-10T01:10:54;2.22;;;2.20;;
25653;SDS011;13511;48.622;9.230;2023-05-10T01:13:39;4.30;;;2.40;;
25653;SDS011;13511;48.622;9.230;2023-05-10T01:16:07;2.20;;;2.10;;
25653;SDS011;13511;48.622;9.230;2023-05-10T01:18:34;2.50;;;2.35;;
25653;SDS011;13511;48.622;9.230;2023-05-10T01:26:54;2.55;;;2.20;;
25653;SDS011;13511;48.622;9.230;2023-05-10T01:29:26;4.00;;;1.90;;
25653;SDS011;13511;48.622;9.230;2023-05-10T01:34:32;2.92;;;2.08;;
25653;SDS011;13511;48.622;9.230;2023-05-10T01:37:07;3.50;;;1.83;;
25653;SDS011;13511;48.622;9.230;2023-05-10T01:39:47;1.88;;;1.85;;
25653;SDS011;13511;48.622;9.230;2023-05-10T01:42:22;3.88;;;1.92;;
25653;SDS011;13511;48.622;9.230;2023-05-10T01:44:50;4.18;;;1.80;;
25653;SDS011;13511;48.622;9.230;2023-05-10T01:47:21;2.63;;;2.10;;
25653;SDS011;13511;48.622;9.230;2023-05-10T01:49:50;3.17;;;1.95;;
25653;SDS011;13511;48.622;9.230;2023-05-10T01:52:17;2.45;;;2.00;;
25653;SDS011;13511;48.622;9.230;2023-05-10T01:55:01;2.20;;;2.00;;
25653;SDS011;13511;48.622;9.230;2023-05-10T01:57:30;2.05;;;1.90;;
25653;SDS011;13511;48.622;9.230;2023-05-10T01:59:58;2.72;;;1.90;;
25653;SDS011;13511;48.622;9.230;2023-05-10T02:02:25;2.97;;;1.92;;
25653;SDS011;13511;48.622;9.230;2023-05-10T02:04:52;2.20;;;2.00;;
25653;SDS011;13511;48.622;9.230;2023-05-10T02:07:18;1.90;;;1.90;;
25653;SDS011;13511;48.622;9.230;2023-05-10T02:09:45;2.65;;;2.10;;
25653;SDS011;13511;48.622;9.230;2023-05-10T02:12:13;2.63;;;2.15;;
25653;SDS011;13511;48.622;9.230;2023-05-10T02:14:39;5.45;;;2.28;;
25653;SDS011;13511;48.622;9.230;2023-05-10T02:17:06;2.42;;;2.25;;
25653;SDS011;13511;48.622;9.230;2023-05-10T02:19:33;2.00;;;2.00;;
25653;SDS011;13511;48.622;9.230;2023-05-10T02:21:59;2.90;;;2.13;;
25653;SDS011;13511;48.622;9.230;2023-05-10T02:24:26;1.98;;;1.77;;
25653;SDS011;13511;48.622;9.230;2023-05-10T02:26:53;1.77;;;1.77;;
25653;SDS011;13511;48.622;9.230;2023-05-10T02:29:20;3.08;;;2.08;;
25653;SDS011;13511;48.622;9.230;2023-05-10T02:31:48;3.55;;;1.77;;
25653;SDS011;13511;48.622;9.230;2023-05-10T02:34:15;3.40;;;1.77;;
25653;SDS011;13511;48.622;9.230;2023-05-10T02:36:41;6.03;;;2.33;;
25653;SDS011;13511;48.622;9.230;2023-05-10T02:39:08;8.52;;;2.20;;
25653;SDS011;13511;48.622;9.230;2023-05-10T02:41:37;1.73;;;1.73;;
25653;SDS011;13511;48.622;9.230;2023-05-10T02:44:04;1.95;;;1.83;;
25653;SDS011;13511;48.622;9.230;2023-05-10T02:46:32;2.58;;;2.13;;
25653;SDS011;13511;48.622;9.230;2023-05-10T02:48:58;5.70;;;2.00;;
25653;SDS011;13511;48.622;9.230;2023-05-10T02:51:25;1.90;;;1.80;;
25653;SDS011;13511;48.622;9.230;2023-05-10T02:53:53;1.85;;;1.75;;
25653;SDS011;13511;48.622;9.230;2023-05-10T02:56:25;2.55;;;2.00;;
25653;SDS011;13511;48.622;9.230;2023-05-10T02:58:52;2.13;;;1.98;;
25653;SDS011;13511;48.622;9.230;2023-05-10T03:01:18;2.17;;;1.95;;
25653;SDS011;13511;48.622;9.230;2023-05-10T03:03:44;7.05;;;2.15;;
25653;SDS011;13511;48.622;9.230;2023-05-10T03:06:10;2.00;;;2.00;;
25653;SDS011;13511;48.622;9.230;2023-05-10T03:08:36;2.10;;;1.92;;
25653;SDS011;13511;48.622;9.230;2023-05-10T03:19:02;3.45;;;2.60;;
25653;SDS011;13511;48.622;9.230;2023-05-10T03:21:32;2.42;;;2.30;;
25653;SDS011;13511;48.622;9.230;2023-05-10T03:23:59;2.60;;;2.50;;
25653;SDS011;13511;48.622;9.230;2023-05-10T03:26:30;3.13;;;2.30;;
25653;SDS011;13511;48.622;9.230;2023-05-10T03:28:56;4.82;;;2.35;;
25653;SDS011;13511;48.622;9.230;2023-05-10T03:31:24;2.25;;;2.25;;
25653;SDS011;13511;48.622;9.230;2023-05-10T03:33:50;2.42;;;2.33;;
25653;SDS011;13511;48.622;9.230;2023-05-10T03:36:17;2.80;;;2.70;;
25653;SDS011;13511;48.622;9.230;2023-05-10T03:38:43;2.55;;;2.45;;
25653;SDS011;13511;48.622;9.230;2023-05-10T03:41:09;2.67;;;2.50;;
25653;SDS011;13511;48.622;9.230;2023-05-10T03:43:35;2.95;;;2.58;;
25653;SDS011;13511;48.622;9.230;2023-05-10T03:46:04;3.08;;;2.13;;
25653;SDS011;13511;48.622;9.230;2023-05-10T03:48:31;2.40;;;2.30;;
25653;SDS011;13511;48.622;9.230;2023-05-10T03:50:57;2.88;;;2.38;;
25653;SDS011;13511;48.622;9.230;2023-05-10T03:53:24;2.40;;;2.30;;
25653;SDS011;13511;48.622;9.230;2023-05-10T03:55:50;3.70;;;2.88;;
25653;SDS011;13511;48.622;9.230;2023-05-10T03:58:16;3.53;;;2.42;;
25653;SDS011;13511;48.622;9.230;2023-05-10T04:00:43;2.45;;;2.30;;
25653;SDS011;13511;48.622;9.230;2023-05-10T04:03:10;2.47;;;2.35;;
25653;SDS011;13511;48.622;9.230;2023-05-10T04:05:36;3.05;;;2.88;;
25653;SDS011;13511;48.622;9.230;2023-05-10T04:08:03;2.67;;;2.45;;
25653;SDS011;13511;48.622;9.230;2023-05-10T04:10:29;2.50;;;2.40;;
25653;SDS011;13511;48.622;9.230;2023-05-10T04:12:55;2.60;;;2.50;;
25653;SDS011;13511;48.622;9.230;2023-05-10T04:15:21;3.45;;;2.72;;
25653;SDS011;13511;48.622;9.230;2023-05-10T04:17:47;2.88;;;2.70;;
25653;SDS011;13511;48.622;9.230;2023-05-10T04:20:13;2.70;;;2.60;;
25653;SDS011;13511;48.622;9.230;2023-05-10T04:22:39;2.70;;;2.50;;
25653;SDS011;13511;48.622;9.230;2023-05-10T04:25:06;4.00;;;2.80;;
25653;SDS011;13511;48.622;9.230;2023-05-10T04:27:32;10.30;;;3.03;;
25653;SDS011;13511;48.622;9.230;2023-05-10T04:29:58;2.78;;;2.65;;
25653;SDS011;13511;48.622;9.230;2023-05-10T04:32:24;3.15;;;2.90;;
25653;SDS011;13511;48.622;9.230;2023-05-10T04:34:50;5.05;;;3.30;;
25653;SDS011;13511;48.622;9.230;2023-05-10T04:37:16;2.80;;;2.70;;
25653;SDS011;13511;48.622;9.230;2023-05-10T04:39:42;2.95;;;2.75;;
25653;SDS011;13511;48.622;9.230;2023-05-10T04:42:08;3.60;;;3.30;;
25653;SDS011;13511;48.622;9.230;2023-05-10T04:44:35;3.75;;;3.20;;
25653;SDS011;13511;48.622;9.230;2023-05-10T04:47:01;4.07;;;3.10;;
25653;SDS011;13511;48.622;9.230;2023-05-10T04:49:28;3.40;;;3.00;;
25653;SDS011;13511;48.622;9.230;2023-05-10T04:51:54;3.67;;;3.33;;
25653;SDS011;13511;48.622;9.230;2023-05-10T04:54:20;3.53;;;3.25;;
25653;SDS011;13511;48.622;9.230;2023-05-10T04:56:46;4.68;;;3.20;;
25653;SDS011;13511;48.622;9.230;2023-05-10T04:59:12;6.78;;;3.35;;
25653;SDS011;13511;48.622;9.230;2023-05-10T05:01:39;3.70;;;3.30;;
25653;SDS011;13511;48.622;9.230;2023-05-10T05:04:05;5.68;;;3.72;;
25653;SDS011;13511;48.622;9.230;2023-05-10T05:06:31;3.35;;;3.17;;
25653;SDS011;13511;48.622;9.230;2023-05-10T05:08:57;5.65;;;3.47;;
25653;SDS011;13511;48.622;9.230;2023-05-10T05:11:23;4.97;;;3.22;;
25653;SDS011;13511;48.622;9.230;2023-05-10T05:13:50;3.53;;;3.30;;
25653;SDS011;13511;48.622;9.230;2023-05-10T05:16:16;3.60;;;2.90;;
25653;SDS011;13511;48.622;9.230;2023-05-10T05:18:42;4.93;;;3.22;;
25653;SDS011;13511;48.622;9.230;2023-05-10T05:21:18;4.63;;;3.83;;
25653;SDS011;13511;48.622;9.230;2023-05-10T05:23:44;5.43;;;3.85;;
25653;SDS011;13511;48.622;9.230;2023-05-10T05:26:10;4.72;;;3.40;;
25653;SDS011;13511;48.622;9.230;2023-05-10T05:28:36;3.17;;;2.97;;
25653;SDS011;13511;48.622;9.230;2023-05-10T05:31:03;4.30;;;3.30;;
25653;SDS011;13511;48.622;9.230;2023-05-10T05:33:29;3.78;;;3.42;;
25653;SDS011;13511;48.622;9.230;2023-05-10T05:35:55;3.45;;;3.25;;
25653;SDS011;13511;48.622;9.230;2023-05-10T05:38:21;3.97;;;3.45;;
25653;SDS011;13511;48.622;9.230;2023-05-10T05:40:47;3.50;;;3.38;;
25653;SDS011;13511;48.622;9.230;2023-05-10T05:43:13;3.30;;;3.20;;
25653;SDS011;13511;48.622;9.230;2023-05-10T05:45:39;3.30;;;3.20;;
25653;SDS011;13511;48.622;9.230;2023-05-10T05:48:05;4.50;;;3.40;;
25653;SDS011;13511;48.622;9.230;2023-05-10T05:50:31;3.35;;;3.17;;
25653;SDS011;13511;48.622;9.230;2023-05-10T05:52:57;3.78;;;3.40;;
25653;SDS011;13511;48.622;9.230;2023-05-10T05:55:23;3.60;;;3.40;;
25653;SDS011;13511;48.622;9.230;2023-05-10T05:57:51;3.70;;;3.50;;
25653;SDS011;13511;48.622;9.230;2023-05-10T06:00:17;3.83;;;3.60;;
25653;SDS011;13511;48.622;9.230;2023-05-10T06:02:43;3.75;;;3.30;;
25653;SDS011;13511;48.622;9.230;2023-05-10T06:05:09;3.13;;;3.03;;
25653;SDS011;13511;48.622;9.230;2023-05-10T06:07:35;4.15;;;3.22;;
25653;SDS011;13511;48.622;9.230;2023-05-10T06:10:01;3.70;;;3.50;;
25653;SDS011;13511;48.622;9.230;2023-05-10T06:12:27;3.80;;;3.20;;
25653;SDS011;13511;48.622;9.230;2023-05-10T06:14:53;3.08;;;2.97;;
25653;SDS011;13511;48.622;9.230;2023-05-10T06:17:19;3.40;;;3.30;;
25653;SDS011;13511;48.622;9.230;2023-05-10T06:19:46;3.47;;;3.38;;
25653;SDS011;13511;48.622;9.230;2023-05-10T06:22:12;4.38;;;3.50;;
25653;SDS011;13511;48.622;9.230;2023-05-10T06:24:38;3.40;;;3.20;;
25653;SDS011;13511;48.622;9.230;2023-05-10T06:27:05;3.90;;;3.42;;
25653;SDS011;13511;48.622;9.230;2023-05-10T06:29:31;4.05;;;3.70;;
25653;SDS011;13511;48.622;9.230;2023-05-10T06:31:57;3.83;;;3.40;;
25653;SDS011;13511;48.622;9.230;2023-05-10T06:34:23;3.28;;;3.08;;
25653;SDS011;13511;48.622;9.230;2023-05-10T06:36:49;3.67;;;3.40;;
25653;SDS011;13511;48.622;9.230;2023-05-10T06:39:16;3.83;;;3.63;;
25653;SDS011;13511;48.622;9.230;2023-05-10T06:41:42;3.72;;;3.50;;
25653;SDS011;13511;48.622;9.230;2023-05-10T06:44:08;3.25;;;3.10;;
25653;SDS011;13511;48.622;9.230;2023-05-10T06:46:34;4.85;;;3.45;;
25653;SDS011;13511;48.622;9.230;2023-05-10T06:49:01;4.05;;;3.65;;
25653;SDS011;13511;48.622;9.230;2023-05-10T06:51:27;3.53;;;3.42;;
25653;SDS011;13511;48.622;9.230;2023-05-10T06:53:53;4.30;;;3.38;;
25653;SDS011;13511;48.622;9.230;2023-05-10T06:56:19;3.25;;;3.00;;
25653;SDS011;13511;48.622;9.230;2023-05-10T06:58:46;3.47;;;3.38;;
25653;SDS011;13511;48.622;9.230;2023-05-10T07:01:12;3.33;;;3.13;;
25653;SDS011;13511;48.622;9.230;2023-05-10T07:03:38;3.55;;;3.25;;
25653;SDS011;13511;48.622;9.230;2023-05-10T07:06:04;7.22;;;4.15;;
25653;SDS011;13511;48.622;9.230;2023-05-10T07:08:32;3.08;;;2.90;;
25653;SDS011;13511;48.622;9.230;2023-05-10T07:11:04;3.53;;;3.22;;
25653;SDS011;13511;48.622;9.230;2023-05-10T07:13:32;3.80;;;3.40;;
25653;SDS011;13511;48.622;9.230;2023-05-10T07:15:59;3.13;;;3.00;;
25653;SDS011;13511;48.622;9.230;2023-05-10T07:18:26;3.88;;;3.42;;
25653;SDS011;13511;48.622;9.230;2023-05-10T07:20:52;4.60;;;3.42;;
25653;SDS011;13511;48.622;9.230;2023-05-10T07:23:18;2.97;;;2.88;;
25653;SDS011;13511;48.622;9.230;2023-05-10T07:25:45;3.28;;;3.08;;
25653;SDS011;13511;48.622;9.230;2023-05-10T07:28:12;3.30;;;3.20;;
25653;SDS011;13511;48.622;9.230;2023-05-10T07:30:38;3.38;;;3.17;;
25653;SDS011;13511;48.622;9.230;2023-05-10T07:33:04;3.22;;;3.13;;
25653;SDS011;13511;48.622;9.230;2023-05-10T07:35:30;3.70;;;3.60;;
25653;SDS011;13511;48.622;9.230;2023-05-10T07:37:56;3.50;;;3.20;;
25653;SDS011;13511;48.622;9.230;2023-05-10T07:40:22;3.83;;;3.55;;
25653;SDS011;13511;48.622;9.230;2023-05-10T07:42:48;3.63;;;3.38;;
25653;SDS011;13511;48.622;9.230;2023-05-10T07:45:14;5.25;;;3.45;;
25653;SDS011;13511;48.622;9.230;2023-05-10T07:47:40;3.30;;;3.20;;
25653;SDS011;13511;48.622;9.230;2023-05-10T07:50:06;4.85;;;3.72;;
25653;SDS011;13511;48.622;9.230;2023-05-10T07:52:32;8.38;;;4.20;;
25653;SDS011;13511;48.622;9.230;2023-05-10T07:54:58;3.85;;;3.58;;
25653;SDS011;13511;48.622;9.230;2023-05-10T07:57:24;3.67;;;3.58;;
25653;SDS011;13511;48.622;9.230;2023-05-10T07:59:50;3.80;;;3.70;;
25653;SDS011;13511;48.622;9.230;2023-05-10T08:02:16;3.90;;;3.60;;
25653;SDS011;13511;48.622;9.230;2023-05-10T08:04:42;3.85;;;3.65;;
25653;SDS011;13511;48.622;9.230;2023-05-10T08:07:08;4.47;;;4.20;;
25653;SDS011;13511;48.622;9.230;2023-05-10T08:09:35;3.78;;;3.50;;
25653;SDS011;13511;48.622;9.230;2023-05-10T08:12:01;3.60;;;3.30;;
25653;SDS011;13511;48.622;9.230;2023-05-10T08:14:28;3.47;;;3.38;;
25653;SDS011;13511;48.622;9.230;2023-05-10T08:16:54;3.60;;;3.50;;
25653;SDS011;13511;48.622;9.230;2023-05-10T08:19:21;3.42;;;3.33;;
25653;SDS011;13511;48.622;9.230;2023-05-10T08:21:47;3.95;;;3.67;;
25653;SDS011;13511;48.622;9.230;2023-05-10T08:24:14;3.75;;;3.55;;
25653;SDS011;13511;48.622;9.230;2023-05-10T08:26:40;4.60;;;3.90;;
25653;SDS011;13511;48.622;9.230;2023-05-10T08:29:06;3.50;;;3.40;;
25653;SDS011;13511;48.622;9.230;2023-05-10T08:31:32;3.38;;;3.28;;
25653;SDS011;13511;48.622;9.230;2023-05-10T08:33:58;3.65;;;3.53;;
25653;SDS011;13511;48.622;9.230;2023-05-10T08:36:24;4.07;;;3.70;;
25653;SDS011;13511;48.622;9.230;2023-05-10T08:38:50;3.53;;;3.40;;
25653;SDS011;13511;48.622;9.230;2023-05-10T08:41:19;3.47;;;3.38;;
25653;SDS011;13511;48.622;9.230;2023-05-10T08:43:46;7.93;;;3.55;;
25653;SDS011;13511;48.622;9.230;2023-05-10T08:46:14;3.70;;;3.40;;
25653;SDS011;13511;48.622;9.230;2023-05-10T08:48:44;3.83;;;3.53;;
25653;SDS011;13511;48.622;9.230;2023-05-10T08:51:14;3.35;;;3.25;;
25653;SDS011;13511;48.622;9.230;2023-05-10T08:53:41;3.28;;;3.17;;
25653;SDS011;13511;48.622;9.230;2023-05-10T08:56:07;3.70;;;3.60;;
25653;SDS011;13511;48.622;9.230;2023-05-10T08:58:33;3.28;;;3.17;;
25653;SDS011;13511;48.622;9.230;2023-05-10T09:01:00;4.05;;;3.60;;
25653;SDS011;13511;48.622;9.230;2023-05-10T09:03:26;3.35;;;3.25;;
25653;SDS011;13511;48.622;9.230;2023-05-10T09:05:52;4.57;;;3.63;;
25653;SDS011;13511;48.622;9.230;2023-05-10T09:08:18;3.72;;;3.53;;
25653;SDS011;13511;48.622;9.230;2023-05-10T09:10:45;4.15;;;3.95;;
25653;SDS011;13511;48.622;9.230;2023-05-10T09:13:12;3.85;;;3.65;;
25653;SDS011;13511;48.622;9.230;2023-05-10T09:15:40;3.70;;;3.60;;
25653;SDS011;13511;48.622;9.230;2023-05-10T09:18:06;3.80;;;3.60;;
25653;SDS011;13511;48.622;9.230;2023-05-10T09:20:32;3.58;;;3.45;;
25653;SDS011;13511;48.622;9.230;2023-05-10T09:22:58;3.90;;;3.70;;
25653;SDS011;13511;48.622;9.230;2023-05-10T09:25:24;3.67;;;3.58;;
25653;SDS011;13511;48.622;9.230;2023-05-10T09:27:50;3.95;;;3.70;;
25653;SDS011;13511;48.622;9.230;2023-05-10T09:30:17;3.92;;;3.60;;
25653;SDS011;13511;48.622;9.230;2023-05-10T09:32:48;4.10;;;4.00;;
25653;SDS011;13511;48.622;9.230;2023-05-10T09:35:16;4.03;;;3.83;;
25653;SDS011;13511;48.622;9.230;2023-05-10T09:37:44;3.53;;;3.42;;
25653;SDS011;13511;48.622;9.230;2023-05-10T09:40:17;5.30;;;3.60;;
25653;SDS011;13511;48.622;9.230;2023-05-10T09:42:51;3.87;;;3.67;;
25653;SDS011;13511;48.622;9.230;2023-05-10T09:45:17;3.95;;;3.75;;
25653;SDS011;13511;48.622;9.230;2023-05-10T09:47:43;3.90;;;3.80;;
25653;SDS011;13511;48.622;9.230;2023-05-10T09:50:09;3.55;;;3.40;;
25653;SDS011;13511;48.622;9.230;2023-05-10T09:55:23;3.88;;;3.67;;
25653;SDS011;13511;48.622;9.230;2023-05-10T09:57:49;3.90;;;3.70;;
25653;SDS011;13511;48.622;9.230;2023-05-10T10:00:23;4.30;;;4.00;;
25653;SDS011;13511;48.622;9.230;2023-05-10T10:02:56;3.75;;;3.65;;
25653;SDS011;13511;48.622;9.230;2023-05-10T10:05:32;4.40;;;4.20;;
25653;SDS011;13511;48.622;9.230;2023-05-10T10:07:59;4.63;;;4.20;;
25653;SDS011;13511;48.622;9.230;2023-05-10T10:10:25;4.22;;;3.58;;
25653;SDS011;13511;48.622;9.230;2023-05-10T10:12:52;3.95;;;3.85;;
25653;SDS011;13511;48.622;9.230;2023-05-10T10:15:18;3.70;;;3.60;;
25653;SDS011;13511;48.622;9.230;2023-05-10T10:17:44;3.90;;;3.80;;
25653;SDS011;13511;48.622;9.230;2023-05-10T10:20:11;3.85;;;3.50;;
25653;SDS011;13511;48.622;9.230;2023-05-10T10:22:37;4.30;;;3.92;;
25653;SDS011;13511;48.622;9.230;2023-05-10T10:25:04;4.00;;;3.90;;
25653;SDS011;13511;48.622;9.230;2023-05-10T10:35:26;3.72;;;3.63;;
25653;SDS011;13511;48.622;9.230;2023-05-10T10:37:53;4.43;;;4.13;;
25653;SDS011;13511;48.622;9.230;2023-05-10T10:42:52;4.20;;;4.00;;
25653;SDS011;13511;48.622;9.230;2023-05-10T10:45:18;4.00;;;3.90;;
25653;SDS011;13511;48.622;9.230;2023-05-10T10:47:45;4.47;;;4.30;;
25653;SDS011;13511;48.622;9.230;2023-05-10T10:50:11;6.65;;;4.43;;
25653;SDS011;13511;48.622;9.230;2023-05-10T10:52:44;4.90;;;4.70;;
25653;SDS011;13511;48.622;9.230;2023-05-10T10:55:12;5.15;;;4.35;;
25653;SDS011;13511;48.622;9.230;2023-05-10T10:57:51;4.40;;;4.30;;
25653;SDS011;13511;48.622;9.230;2023-05-10T11:10:34;5.60;;;5.22;;
25653;SDS011;13511;48.622;9.230;2023-05-10T11:13:07;5.00;;;4.90;;
25653;SDS011;13511;48.622;9.230;2023-05-10T11:18:00;12.70;;;4.80;;
25653;SDS011;13511;48.622;9.230;2023-05-10T11:20:41;6.22;;;5.07;;
25653;SDS011;13511;48.622;9.230;2023-05-10T11:23:11;6.30;;;5.80;;
25653;SDS011;13511;48.622;9.230;2023-05-10T11:25:42;5.78;;;5.47;;
25653;SDS011;13511;48.622;9.230;2023-05-10T11:28:09;6.18;;;5.88;;
25653;SDS011;13511;48.622;9.230;2023-05-10T11:30:35;6.32;;;5.97;;
25653;SDS011;13511;48.622;9.230;2023-05-10T11:33:02;5.80;;;5.60;;
25653;SDS011;13511;48.622;9.230;2023-05-10T11:35:28;6.60;;;6.20;;
25653;SDS011;13511;48.622;9.230;2023-05-10T11:37:54;6.38;;;5.97;;
25653;SDS011;13511;48.622;9.230;2023-05-10T11:40:23;6.57;;;6.07;;
25653;SDS011;13511;48.622;9.230;2023-05-10T11:42:49;6.70;;;6.30;;
25653;SDS011;13511;48.622;9.230;2023-05-10T11:45:15;6.47;;;6.18;;
25653;SDS011;13511;48.622;9.230;2023-05-10T11:47:42;6.68;;;6.18;;
25653;SDS011;13511;48.622;9.230;2023-05-10T11:50:08;6.25;;;5.70;;
25653;SDS011;13511;48.622;9.230;2023-05-10T11:52:35;5.93;;;5.40;;
25653;SDS011;13511;48.622;9.230;2023-05-10T11:55:04;14.70;;;5.70;;
25653;SDS011;13511;48.622;9.230;2023-05-10T11:57:30;7.60;;;5.70;;
25653;SDS011;13511;48.622;9.230;2023-05-10T11:59:56;6.82;;;5.53;;
25653;SDS011;13511;48.622;9.230;2023-05-10T12:02:23;6.05;;;5.63;;
25653;SDS011;13511;48.622;9.230;2023-05-10T12:04:50;5.35;;;4.95;;
25653;SDS011;13511;48.622;9.230;2023-05-10T12:07:16;5.07;;;4.68;;
25653;SDS011;13511;48.622;9.230;2023-05-10T12:10:02;6.47;;;6.07;;
25653;SDS011;13511;48.622;9.230;2023-05-10T12:12:34;7.15;;;6.50;;
25653;SDS011;13511;48.622;9.230;2023-05-10T12:15:01;4.80;;;4.40;;
25653;SDS011;13511;48.622;9.230;2023-05-10T12:17:28;5.03;;;4.72;;
25653;SDS011;13511;48.622;9.230;2023-05-10T12:19:58;4.95;;;4.60;;
25653;SDS011;13511;48.622;9.230;2023-05-10T12:22:25;4.70;;;4.40;;
25653;SDS011;13511;48.622;9.230;2023-05-10T12:24:51;5.13;;;4.80;;
25653;SDS011;13511;48.622;9.230;2023-05-10T12:27:17;6.55;;;5.57;;
25653;SDS011;13511;48.622;9.230;2023-05-10T12:29:43;5.50;;;5.10;;
25653;SDS011;13511;48.622;9.230;2023-05-10T12:32:09;5.43;;;5.10;;
25653;SDS011;13511;48.622;9.230;2023-05-10T12:34:35;5.22;;;4.93;;
25653;SDS011;13511;48.622;9.230;2023-05-10T12:37:03;5.03;;;4.60;;
25653;SDS011;13511;48.622;9.230;2023-05-10T12:39:43;5.63;;;4.70;;
25653;SDS011;13511;48.622;9.230;2023-05-10T12:42:09;4.93;;;4.63;;
25653;SDS011;13511;48.622;9.230;2023-05-10T12:44:35;4.72;;;4.53;;
25653;SDS011;13511;48.622;9.230;2023-05-10T12:47:02;4.80;;;4.50;;
25653;SDS011;13511;48.622;9.230;2023-05-10T12:49:28;4.60;;;4.30;;
25653;SDS011;13511;48.622;9.230;2023-05-10T12:51:54;6.25;;;4.40;;
25653;SDS011;13511;48.622;9.230;2023-05-10T12:54:20;4.50;;;4.40;;
25653;SDS011;13511;48.622;9.230;2023-05-10T12:56:46;4.28;;;4.03;;
25653;SDS011;13511;48.622;9.230;2023-05-10T12:59:12;4.60;;;4.20;;
25653;SDS011;13511;48.622;9.230;2023-05-10T13:01:38;4.45;;;4.25;;
25653;SDS011;13511;48.622;9.230;2023-05-10T13:04:05;4.80;;;4.50;;
25653;SDS011;13511;48.622;9.230;2023-05-10T13:06:31;5.05;;;4.70;;
25653;SDS011;13511;48.622;9.230;2023-05-10T13:08:57;4.28;;;4.18;;
25653;SDS011;13511;48.622;9.230;2023-05-10T13:11:23;5.10;;;4.80;;
25653;SDS011;13511;48.622;9.230;2023-05-10T13:13:49;4.80;;;4.60;;
25653;SDS011;13511;48.622;9.230;2023-05-10T13:16:15;4.47;;;4.38;;
25653;SDS011;13511;48.622;9.230;2023-05-10T13:18:41;4.47;;;4.22;;
25653;SDS011;13511;48.622;9.230;2023-05-10T13:21:07;4.40;;;4.25;;
25653;SDS011;13511;48.622;9.230;2023-05-10T13:23:33;4.35;;;4.15;;
25653;SDS011;13511;48.622;9.230;2023-05-10T13:26:00;4.70;;;4.40;;
25653;SDS011;13511;48.622;9.230;2023-05-10T13:28:26;4.60;;;4.40;;
25653;SDS011;13511;48.622;9.230;2023-05-10T13:30:52;5.43;;;4.93;;
25653;SDS011;13511;48.622;9.230;2023-05-10T13:33:18;4.60;;;4.30;;
25653;SDS011;13511;48.622;9.230;2023-05-10T13:35:44;4.75;;;4.40;;
25653;SDS011;13511;48.622;9.230;2023-05-10T13:38:10;4.63;;;4.22;;
25653;SDS011;13511;48.622;9.230;2023-05-10T13:40:36;6.25;;;4.65;;
25653;SDS011;13511;48.622;9.230;2023-05-10T13:43:02;4.72;;;4.32;;
25653;SDS011;13511;48.622;9.230;2023-05-10T13:45:28;5.15;;;4.32;;
25653;SDS011;13511;48.622;9.230;2023-05-10T13:47:54;4.70;;;4.35;;
25653;SDS011;13511;48.622;9.230;2023-05-10T13:50:20;4.40;;;4.20;;
25653;SDS011;13511;48.622;9.230;2023-05-10T13:52:46;4.60;;;4.30;;
25653;SDS011;13511;48.622;9.230;2023-05-10T13:55:12;4.65;;;4.43;;
25653;SDS011;13511;48.622;9.230;2023-05-10T13:57:38;4.38;;;4.03;;
25653;SDS011;13511;48.622;9.230;2023-05-10T14:00:04;4.22;;;3.90;;
25653;SDS011;13511;48.622;9.230;2023-05-10T14:02:31;5.07;;;4.65;;
25653;SDS011;13511;48.622;9.230;2023-05-10T14:04:57;4.40;;;4.20;;
25653;SDS011;13511;48.622;9.230;2023-05-10T14:07:23;5.38;;;4.97;;
25653;SDS011;13511;48.622;9.230;2023-05-10T14:09:49;4.53;;;4.35;;
25653;SDS011;13511;48.622;9.230;2023-05-10T14:12:15;4.80;;;4.53;;
25653;SDS011;13511;48.622;9.230;2023-05-10T14:14:41;5.00;;;4.60;;
25653;SDS011;13511;48.622;9.230;2023-05-10T14:17:07;4.50;;;4.30;;
25653;SDS011;13511;48.622;9.230;2023-05-10T14:19:33;6.13;;;4.38;;
25653;SDS011;13511;48.622;9.230;2023-05-10T14:21:59;5.20;;;4.80;;
25653;SDS011;13511;48.622;9.230;2023-05-10T14:24:25;5.38;;;4.90;;
25653;SDS011;13511;48.622;9.230;2023-05-10T14:26:51;4.43;;;4.32;;
25653;SDS011;13511;48.622;9.230;2023-05-10T14:29:19;4.30;;;4.00;;
25653;SDS011;13511;48.622;9.230;2023-05-10T14:31:45;5.15;;;4.78;;
25653;SDS011;13511;48.622;9.230;2023-05-10T14:34:11;4.88;;;4.30;;
25653;SDS011;13511;48.622;9.230;2023-05-10T14:36:37;4.43;;;4.22;;
25653;SDS011;13511;48.622;9.230;2023-05-10T14:39:03;4.30;;;4.20;;
25653;SDS011;13511;48.622;9.230;2023-05-10T14:41:29;4.95;;;4.60;;
25653;SDS011;13511;48.622;9.230;2023-05-10T14:43:55;4.90;;;4.40;;
25653;SDS011;13511;48.622;9.230;2023-05-10T14:46:21;4.30;;;4.10;;
25653;SDS011;13511;48.622;9.230;2023-05-10T14:48:47;4.40;;;4.20;;
25653;SDS011;13511;48.622;9.230;2023-05-10T14:51:13;4.82;;;4.30;;
25653;SDS011;13511;48.622;9.230;2023-05-10T14:53:39;5.22;;;4.78;;
25653;SDS011;13511;48.622;9.230;2023-05-10T14:56:05;4.85;;;4.60;;
25653;SDS011;13511;48.622;9.230;2023-05-10T14:58:31;4.88;;;4.50;;
25653;SDS011;13511;48.622;9.230;2023-05-10T15:00:57;4.20;;;4.00;;
25653;SDS011;13511;48.622;9.230;2023-05-10T15:03:23;4.35;;;4.15;;
25653;SDS011;13511;48.622;9.230;2023-05-10T15:05:49;4.20;;;4.00;;
25653;SDS011;13511;48.622;9.230;2023-05-10T15:08:16;4.30;;;4.10;;
25653;SDS011;13511;48.622;9.230;2023-05-10T15:10:42;4.72;;;4.22;;
25653;SDS011;13511;48.622;9.230;2023-05-10T15:13:08;4.95;;;4.63;;
25653;SDS011;13511;48.622;9.230;2023-05-10T15:15:34;5.30;;;4.55;;
25653;SDS011;13511;48.622;9.230;2023-05-10T15:18:00;4.72;;;4.30;;
25653;SDS011;13511;48.622;9.230;2023-05-10T15:20:26;4.45;;;4.13;;
25653;SDS011;13511;48.622;9.230;2023-05-10T15:22:52;4.65;;;4.45;;
25653;SDS011;13511;48.622;9.230;2023-05-10T15:25:19;4.22;;;3.83;;
25653;SDS011;13511;48.622;9.230;2023-05-10T15:27:45;4.05;;;3.85;;